Time;durP1;ratioP1;P1;durP2;ratioP2;P2;SDS_P1;SDS_P2;PMS_P1;PMS_P2;Temp;Humidity;BMP_temperature;BMP_pressure;BME280_temperature;BME280_humidity;BME280_pressure;Samples;Min_cycle;Max_cycle;Signal;HPM_P1;HPM_P2
2022/09/20 00:01:10;;;;;;;5.40;5.20;;;;;;;;;;5031273;28;20417;-72
2022/09/20 00:03:43;;;;;;;5.45;5.25;;;;;;;;;;5032265;28;20021;-72
2022/09/20 00:06:12;;;;;;;5.40;5.20;;;;;;;;;;5028760;28;20029;-72
2022/09/20 00:08:38;;;;;;;5.53;5.32;;;;;;;;;;5031276;28;20037;-72
2022/09/20 00:11:16;;;;;;;5.30;5.10;;;;;;;;;;5041226;28;20060;-73
2022/09/20 00:13:43;;;;;;;5.55;5.35;;;;;;;;;;5034123;28;20126;-72
2022/09/20 00:16:12;;;;;;;5.40;5.20;;;;;;;;;;5039102;28;20033;-72
2022/09/20 00:18:38;;;;;;;5.18;4.97;;;;;;;;;;5033826;28;20634;-72
2022/09/20 00:21:04;;;;;;;5.78;5.50;;;;;;;;;;5020702;28;20563;-72
2022/09/20 00:23:31;;;;;;;5.60;5.40;;;;;;;;;;5037418;28;20029;-72
2022/09/20 00:26:02;;;;;;;5.60;5.40;;;;;;;;;;5037127;28;20395;-72
2022/09/20 00:28:28;;;;;;;5.38;5.18;;;;;;;;;;5028044;28;20037;-73
2022/09/20 00:30:55;;;;;;;5.00;4.80;;;;;;;;;;5034635;28;20037;-72
2022/09/20 00:33:22;;;;;;;5.25;5.05;;;;;;;;;;5038005;28;20034;-72
2022/09/20 00:35:48;;;;;;;5.32;5.13;;;;;;;;;;5033316;28;20033;-72
2022/09/20 00:38:14;;;;;;;5.18;4.97;;;;;;;;;;5034236;28;20421;-71
2022/09/20 00:40:41;;;;;;;5.45;5.25;;;;;;;;;;5037288;28;20036;-72
2022/09/20 00:43:13;;;;;;;5.22;5.03;;;;;;;;;;5034365;28;20033;-72
2022/09/20 00:45:39;;;;;;;5.38;5.18;;;;;;;;;;5035895;28;20037;-72
2022/09/20 00:48:18;;;;;;;5.25;5.05;;;;;;;;;;5040639;28;20039;-73
2022/09/20 00:50:51;;;;;;;5.15;4.95;;;;;;;;;;5032346;28;20041;-72
2022/09/20 00:53:30;;;;;;;5.10;4.90;;;;;;;;;;5033197;28;20037;-71
2022/09/20 00:56:01;;;;;;;5.13;4.93;;;;;;;;;;5038722;28;20094;-73
2022/09/20 00:58:28;;;;;;;5.10;4.90;;;;;;;;;;5035764;28;20127;-71
2022/09/20 01:00:56;;;;;;;5.10;4.90;;;;;;;;;;5030585;28;20033;-72
2022/09/20 01:03:25;;;;;;;5.07;4.88;;;;;;;;;;5031335;28;20029;-72
2022/09/20 01:05:52;;;;;;;5.22;5.03;;;;;;;;;;5034657;28;20037;-71
2022/09/20 01:08:18;;;;;;;5.25;5.05;;;;;;;;;;5032844;28;20048;-73
2022/09/20 01:10:44;;;;;;;5.20;5.00;;;;;;;;;;5037815;28;20036;-73
2022/09/20 01:13:10;;;;;;;5.20;5.00;;;;;;;;;;5036898;28;20037;-73
2022/09/20 01:15:39;;;;;;;5.13;4.93;;;;;;;;;;5036753;28;20186;-73
2022/09/20 01:18:07;;;;;;;5.20;5.00;;;;;;;;;;5033488;28;20093;-72
2022/09/20 01:20:37;;;;;;;5.30;5.10;;;;;;;;;;5035053;28;20033;-73
2022/09/20 01:23:28;;;;;;;4.95;4.75;;;;;;;;;;5031236;28;20044;-72
2022/09/20 01:26:20;;;;;;;4.82;4.63;;;;;;;;;;5033723;28;20041;-72
2022/09/20 01:28:48;;;;;;;5.38;5.18;;;;;;;;;;5032793;28;20055;-72
2022/09/20 01:31:22;;;;;;;5.18;4.97;;;;;;;;;;5029845;28;20551;-72
2022/09/20 01:33:57;;;;;;;5.10;4.90;;;;;;;;;;5041970;28;20108;-72
2022/09/20 01:36:30;;;;;;;5.20;5.00;;;;;;;;;;5033341;28;20515;-72
2022/09/20 01:39:17;;;;;;;5.00;4.80;;;;;;;;;;5037465;28;20040;-72
2022/09/20 01:41:49;;;;;;;5.13;4.93;;;;;;;;;;5035820;28;20112;-72
2022/09/20 01:44:23;;;;;;;5.10;4.90;;;;;;;;;;5035992;28;20128;-73
2022/09/20 01:47:00;;;;;;;4.90;4.70;;;;;;;;;;5037590;28;20043;-73
2022/09/20 01:49:42;;;;;;;5.18;4.97;;;;;;;;;;5032538;28;20396;-73
2022/09/20 01:52:38;;;;;;;5.20;5.00;;;;;;;;;;5034150;28;20033;-73
2022/09/20 01:55:35;;;;;;;5.25;5.05;;;;;;;;;;5035840;28;20617;-72
2022/09/20 01:58:03;;;;;;;5.18;4.97;;;;;;;;;;5029478;28;20087;-72
2022/09/20 02:00:50;;;;;;;5.30;5.10;;;;;;;;;;5038535;28;20097;-72
2022/09/20 02:03:54;;;;;;;5.30;5.10;;;;;;;;;;5039289;28;20033;-73
2022/09/20 02:06:48;;;;;;;5.22;5.03;;;;;;;;;;5033317;28;20279;-73
2022/09/20 02:09:35;;;;;;;4.78;4.57;;;;;;;;;;5035499;28;20582;-72
2022/09/20 02:12:33;;;;;;;5.10;4.90;;;;;;;;;;5027814;28;20045;-72
2022/09/20 02:15:36;;;;;;;5.18;4.97;;;;;;;;;;5033735;28;20041;-72
2022/09/20 02:18:22;;;;;;;5.10;4.90;;;;;;;;;;5014911;28;20095;-72
2022/09/20 02:21:04;;;;;;;5.30;5.10;;;;;;;;;;5037527;28;20035;-72
2022/09/20 02:23:39;;;;;;;5.43;5.22;;;;;;;;;;5033503;28;20037;-73
2022/09/20 02:26:13;;;;;;;5.10;4.90;;;;;;;;;;5027588;28;20037;-73
2022/09/20 02:29:14;;;;;;;5.28;5.07;;;;;;;;;;5035620;28;20120;-72
2022/09/20 02:31:55;;;;;;;5.05;4.85;;;;;;;;;;4912943;29;20047;-72
2022/09/20 02:34:42;;;;;;;5.20;5.00;;;;;;;;;;4918949;29;20062;-73
2022/09/20 02:37:41;;;;;;;5.30;5.10;;;;;;;;;;4909839;29;20148;-72
2022/09/20 02:40:18;;;;;;;4.80;4.60;;;;;;;;;;4911292;29;20044;-71
2022/09/20 02:43:06;;;;;;;5.40;5.20;;;;;;;;;;4916408;29;20580;-73
2022/09/20 02:45:43;;;;;;;5.18;4.97;;;;;;;;;;4911466;29;20059;-73
2022/09/20 02:48:09;;;;;;;5.00;4.80;;;;;;;;;;4920985;29;20036;-72
2022/09/20 02:50:37;;;;;;;5.40;5.20;;;;;;;;;;4904263;29;20051;-71
2022/09/20 02:53:30;;;;;;;5.28;5.07;;;;;;;;;;4909552;29;20040;-71
2022/09/20 02:56:14;;;;;;;5.25;5.05;;;;;;;;;;4913483;29;20127;-72
2022/09/20 02:59:00;;;;;;;5.05;4.85;;;;;;;;;;4914562;29;20459;-71
2022/09/20 03:01:34;;;;;;;5.00;4.80;;;;;;;;;;4918909;29;20048;-72
2022/09/20 03:04:28;;;;;;;5.10;4.90;;;;;;;;;;4913599;29;20155;-72
2022/09/20 03:07:00;;;;;;;5.22;5.03;;;;;;;;;;5034657;28;20110;-73
2022/09/20 03:09:26;;;;;;;4.90;4.70;;;;;;;;;;5034765;28;20059;-72
2022/09/20 03:12:29;;;;;;;5.15;4.95;;;;;;;;;;5036990;28;20041;-72
2022/09/20 03:15:32;;;;;;;5.07;4.88;;;;;;;;;;5039563;28;20037;-72
2022/09/20 03:18:14;;;;;;;4.95;4.75;;;;;;;;;;5031767;28;20029;-73
2022/09/20 03:20:52;;;;;;;5.38;5.18;;;;;;;;;;5040294;28;20029;-71
2022/09/20 03:24:14;;;;;;;4.90;4.70;;;;;;;;;;5041537;28;20029;-73
2022/09/20 03:26:52;;;;;;;5.10;4.90;;;;;;;;;;4937006;29;20039;-72
2022/09/20 03:29:23;;;;;;;5.00;4.80;;;;;;;;;;4937254;29;20458;-73
2022/09/20 03:32:08;;;;;;;5.10;4.90;;;;;;;;;;4939581;29;20043;-72
2022/09/20 03:34:48;;;;;;;4.80;4.60;;;;;;;;;;4939695;29;20063;-71
2022/09/20 03:37:38;;;;;;;4.97;4.78;;;;;;;;;;4935982;29;20055;-71
2022/09/20 03:40:35;;;;;;;5.50;5.25;;;;;;;;;;4937804;29;20506;-71
2022/09/20 03:43:12;;;;;;;5.00;4.80;;;;;;;;;;4941334;29;20086;-72
2022/09/20 03:45:57;;;;;;;4.82;4.63;;;;;;;;;;4942672;29;20127;-74
2022/09/20 03:48:38;;;;;;;4.75;4.55;;;;;;;;;;4936960;29;20039;-72
2022/09/20 03:51:27;;;;;;;4.80;4.60;;;;;;;;;;4931602;29;20613;-72
2022/09/20 03:54:14;;;;;;;4.90;4.70;;;;;;;;;;4943406;29;20067;-72
2022/09/20 03:56:39;;;;;;;4.75;4.55;;;;;;;;;;4951165;28;20052;-72
2022/09/20 03:59:32;;;;;;;4.90;4.70;;;;;;;;;;5035001;28;20095;-72
2022/09/20 04:02:15;;;;;;;4.70;4.50;;;;;;;;;;5039537;28;20090;-72
2022/09/20 04:04:46;;;;;;;5.00;4.80;;;;;;;;;;5034432;28;20040;-72
2022/09/20 04:07:22;;;;;;;5.18;4.97;;;;;;;;;;5033294;28;20544;-72
2022/09/20 04:10:06;;;;;;;4.70;4.50;;;;;;;;;;5038125;28;20040;-72
2022/09/20 04:12:32;;;;;;;5.00;4.80;;;;;;;;;;5032484;28;20036;-72
2022/09/20 04:15:22;;;;;;;4.82;4.63;;;;;;;;;;5041336;28;20428;-72
2022/09/20 04:18:23;;;;;;;5.05;4.85;;;;;;;;;;5035774;28;20033;-73
2022/09/20 04:21:04;;;;;;;5.05;4.85;;;;;;;;;;5034766;28;20086;-72
2022/09/20 04:23:35;;;;;;;5.55;5.35;;;;;;;;;;5036583;28;20076;-73
2022/09/20 04:26:02;;;;;;;5.03;4.82;;;;;;;;;;5014849;28;20400;-71
2022/09/20 04:28:36;;;;;;;5.20;5.00;;;;;;;;;;5035391;28;20040;-72
2022/09/20 04:31:13;;;;;;;5.30;5.10;;;;;;;;;;5038633;28;20033;-71
2022/09/20 04:33:44;;;;;;;5.00;4.80;;;;;;;;;;5023286;28;20045;-71
2022/09/20 04:36:27;;;;;;;5.45;5.25;;;;;;;;;;5031595;28;20029;-73
2022/09/20 04:39:18;;;;;;;5.38;5.18;;;;;;;;;;5036755;28;20088;-72
2022/09/20 04:42:08;;;;;;;5.28;5.07;;;;;;;;;;5034569;28;20025;-71
2022/09/20 04:45:06;;;;;;;5.80;5.50;;;;;;;;;;5033577;28;20033;-72
2022/09/20 04:47:49;;;;;;;5.35;5.15;;;;;;;;;;5036049;28;20043;-72
2022/09/20 04:50:28;;;;;;;5.50;5.30;;;;;;;;;;5030355;28;20548;-72
2022/09/20 04:53:33;;;;;;;5.50;5.30;;;;;;;;;;5029935;28;20037;-73
2022/09/20 04:56:18;;;;;;;5.45;5.25;;;;;;;;;;5032151;28;20382;-73
2022/09/20 04:59:05;;;;;;;5.53;5.32;;;;;;;;;;5029490;28;20039;-73
2022/09/20 05:02:09;;;;;;;5.63;5.40;;;;;;;;;;5033583;28;20436;-73
2022/09/20 05:05:01;;;;;;;5.50;5.30;;;;;;;;;;4929097;29;20052;-73
2022/09/20 05:07:48;;;;;;;5.60;5.40;;;;;;;;;;4926351;29;20048;-72
2022/09/20 05:10:39;;;;;;;5.55;5.35;;;;;;;;;;4934589;29;20120;-75
2022/09/20 05:13:05;;;;;;;5.40;5.20;;;;;;;;;;4935825;29;20039;-72
2022/09/20 05:15:54;;;;;;;5.80;5.50;;;;;;;;;;4935587;29;20078;-73
2022/09/20 05:18:48;;;;;;;5.57;5.38;;;;;;;;;;4941428;29;20091;-72
2022/09/20 05:21:35;;;;;;;5.63;5.43;;;;;;;;;;4931522;29;20178;-73
2022/09/20 05:24:19;;;;;;;5.35;5.15;;;;;;;;;;4925879;29;20044;-74
2022/09/20 05:26:59;;;;;;;5.88;5.57;;;;;;;;;;4929715;29;20115;-73
2022/09/20 05:29:50;;;;;;;5.60;5.40;;;;;;;;;;4933844;29;20040;-73
2022/09/20 05:32:22;;;;;;;5.57;5.38;;;;;;;;;;4931836;29;20122;-73
2022/09/20 05:34:56;;;;;;;5.40;5.20;;;;;;;;;;4932896;29;20055;-73
2022/09/20 05:37:45;;;;;;;5.90;5.60;;;;;;;;;;4931977;29;20031;-73
2022/09/20 05:40:59;;;;;;;5.60;5.40;;;;;;;;;;4989467;28;20033;-74
2022/09/20 05:43:31;;;;;;;5.63;5.43;;;;;;;;;;4929632;29;20030;-72
2022/09/20 05:46:13;;;;;;;6.10;5.80;;;;;;;;;;5021565;28;20128;-74
2022/09/20 05:48:51;;;;;;;5.78;5.50;;;;;;;;;;5036879;28;20037;-75
2022/09/20 05:51:32;;;;;;;6.30;6.00;;;;;;;;;;5037805;28;20100;-73
2022/09/20 05:54:18;;;;;;;5.43;5.22;;;;;;;;;;5022731;28;20037;-74
2022/09/20 05:56:56;;;;;;;5.78;5.47;;;;;;;;;;5037692;28;20033;-74
2022/09/20 05:59:48;;;;;;;5.38;5.18;;;;;;;;;;5039960;28;20036;-74
2022/09/20 06:02:14;;;;;;;5.50;5.30;;;;;;;;;;5015338;28;20044;-74
2022/09/20 06:05:25;;;;;;;5.80;5.50;;;;;;;;;;5036158;28;20128;-73
2022/09/20 06:08:34;;;;;;;5.65;5.40;;;;;;;;;;5032454;28;20096;-72
2022/09/20 06:11:10;;;;;;;5.33;5.13;;;;;;;;;;5035416;28;20033;-73
2022/09/20 06:13:58;;;;;;;5.40;5.20;;;;;;;;;;5025654;28;20353;-73
2022/09/20 06:16:34;;;;;;;5.40;5.20;;;;;;;;;;5030670;28;20037;-73
2022/09/20 06:19:21;;;;;;;5.35;5.15;;;;;;;;;;5002493;28;20544;-73
2022/09/20 06:21:53;;;;;;;5.45;5.25;;;;;;;;;;5038748;28;20419;-74
2022/09/20 06:24:43;;;;;;;5.50;5.30;;;;;;;;;;5039227;28;20036;-73
2022/09/20 06:27:24;;;;;;;6.45;6.07;;;;;;;;;;5026561;28;20045;-73
2022/09/20 06:29:54;;;;;;;5.50;5.30;;;;;;;;;;5036806;28;20029;-73
2022/09/20 06:32:20;;;;;;;5.70;5.45;;;;;;;;;;5040356;28;20589;-73
2022/09/20 06:34:46;;;;;;;6.00;5.70;;;;;;;;;;5035970;28;20041;-73
2022/09/20 06:43:30;;;;;;;5.43;5.22;;;;;;;;;;5036773;28;20037;-72
2022/09/20 06:45:57;;;;;;;6.30;6.00;;;;;;;;;;5038932;28;20489;-74
2022/09/20 06:48:23;;;;;;;6.00;5.70;;;;;;;;;;5035275;28;20025;-72
2022/09/20 06:50:51;;;;;;;6.00;5.70;;;;;;;;;;5031321;28;20078;-73
2022/09/20 06:53:27;;;;;;;6.18;5.88;;;;;;;;;;5041090;28;20037;-73
2022/09/20 06:55:52;;;;;;;6.00;5.70;;;;;;;;;;5039085;28;20033;-73
2022/09/20 06:58:18;;;;;;;6.50;6.20;;;;;;;;;;5030172;28;20168;-73
2022/09/20 07:00:44;;;;;;;5.80;5.50;;;;;;;;;;5038314;28;20036;-73
2022/09/20 07:03:11;;;;;;;5.97;5.68;;;;;;;;;;5037663;28;20033;-73
2022/09/20 07:05:37;;;;;;;5.75;5.45;;;;;;;;;;5010110;28;20060;-73
2022/09/20 07:08:03;;;;;;;5.90;5.60;;;;;;;;;;5037983;28;20111;-73
2022/09/20 07:10:29;;;;;;;5.88;5.57;;;;;;;;;;5036728;28;20041;-73
2022/09/20 07:12:59;;;;;;;5.93;5.63;;;;;;;;;;5036577;28;20114;-72
2022/09/20 07:15:27;;;;;;;5.90;5.60;;;;;;;;;;5038470;28;20044;-73
2022/09/20 07:17:53;;;;;;;5.63;5.43;;;;;;;;;;5003933;28;20137;-73
2022/09/20 07:20:19;;;;;;;5.72;5.43;;;;;;;;;;5037099;28;20036;-72
2022/09/20 07:22:46;;;;;;;5.93;5.63;;;;;;;;;;5036636;28;20042;-73
2022/09/20 07:25:11;;;;;;;6.20;5.90;;;;;;;;;;5010695;28;20029;-73
2022/09/20 07:27:38;;;;;;;5.85;5.55;;;;;;;;;;5037626;28;20041;-73
2022/09/20 07:30:05;;;;;;;6.00;5.70;;;;;;;;;;5025700;28;20103;-73
2022/09/20 07:32:31;;;;;;;5.95;5.65;;;;;;;;;;5044624;28;20040;-73
2022/09/20 07:34:56;;;;;;;6.60;6.30;;;;;;;;;;5033716;28;20419;-73
2022/09/20 07:37:22;;;;;;;6.57;6.28;;;;;;;;;;5036759;28;20067;-72
2022/09/20 07:39:48;;;;;;;6.60;6.30;;;;;;;;;;5044291;28;20040;-73
2022/09/20 07:42:14;;;;;;;6.70;6.40;;;;;;;;;;5030693;28;20037;-73
2022/09/20 07:44:41;;;;;;;6.80;6.50;;;;;;;;;;5041939;28;20114;-73
2022/09/20 07:47:09;;;;;;;7.22;6.90;;;;;;;;;;5040543;28;20029;-73
2022/09/20 07:49:35;;;;;;;6.70;6.40;;;;;;;;;;5042103;28;20041;-73
2022/09/20 07:52:01;;;;;;;6.60;6.30;;;;;;;;;;5038290;28;20132;-73
2022/09/20 07:54:27;;;;;;;6.80;6.50;;;;;;;;;;5035198;28;20518;-73
2022/09/20 07:56:53;;;;;;;6.40;6.10;;;;;;;;;;5040040;28;20029;-73
2022/09/20 07:59:18;;;;;;;6.80;6.50;;;;;;;;;;5033927;28;20084;-73
2022/09/20 08:01:44;;;;;;;6.75;6.45;;;;;;;;;;5042535;28;20056;-73
2022/09/20 08:04:10;;;;;;;6.90;6.60;;;;;;;;;;5041799;28;20029;-73
2022/09/20 08:06:38;;;;;;;6.80;6.50;;;;;;;;;;5040051;28;20041;-73
2022/09/20 08:09:04;;;;;;;6.30;6.00;;;;;;;;;;5040456;28;20033;-73
2022/09/20 08:11:30;;;;;;;6.50;6.20;;;;;;;;;;5039200;28;20049;-73
2022/09/20 08:13:58;;;;;;;6.70;6.40;;;;;;;;;;5039378;28;20105;-73
2022/09/20 08:16:25;;;;;;;6.60;6.30;;;;;;;;;;5035892;28;20393;-72
2022/09/20 08:18:56;;;;;;;6.57;6.28;;;;;;;;;;5040728;28;20165;-72
2022/09/20 08:21:23;;;;;;;6.38;6.07;;;;;;;;;;5033361;28;20032;-72
2022/09/20 08:23:50;;;;;;;6.13;5.82;;;;;;;;;;5038521;28;20044;-72
2022/09/20 08:26:18;;;;;;;6.50;6.20;;;;;;;;;;5036353;28;20112;-72
2022/09/20 08:28:45;;;;;;;6.32;6.03;;;;;;;;;;5036577;28;20059;-72
2022/09/20 08:31:14;;;;;;;6.53;6.22;;;;;;;;;;5041006;28;20378;-72
2022/09/20 08:33:41;;;;;;;6.68;6.38;;;;;;;;;;5034259;28;20091;-72
2022/09/20 08:36:11;;;;;;;6.60;6.30;;;;;;;;;;5039183;28;20091;-72
2022/09/20 08:38:37;;;;;;;6.20;5.90;;;;;;;;;;5035912;28;20323;-72
2022/09/20 08:41:08;;;;;;;6.53;6.22;;;;;;;;;;5045703;28;20180;-72
2022/09/20 08:43:38;;;;;;;6.40;6.10;;;;;;;;;;5032520;28;20090;-72
2022/09/20 08:46:12;;;;;;;6.40;6.10;;;;;;;;;;5034526;28;20038;-72
2022/09/20 08:48:38;;;;;;;6.30;6.00;;;;;;;;;;5042144;28;20045;-72
2022/09/20 08:51:07;;;;;;;6.60;6.30;;;;;;;;;;5041912;28;20061;-71
2022/09/20 08:53:33;;;;;;;6.78;6.47;;;;;;;;;;5035046;28;20073;-72
2022/09/20 08:55:59;;;;;;;6.45;6.15;;;;;;;;;;5023421;28;20032;-72
2022/09/20 08:58:26;;;;;;;6.72;6.43;;;;;;;;;;5040854;28;20038;-71
2022/09/20 09:00:54;;;;;;;6.35;6.05;;;;;;;;;;5028141;28;20068;-71
2022/09/20 09:03:20;;;;;;;7.43;7.03;;;;;;;;;;5037073;28;20032;-72
2022/09/20 09:05:54;;;;;;;7.00;6.70;;;;;;;;;;5042326;28;20637;-71
2022/09/20 09:08:31;;;;;;;7.22;6.90;;;;;;;;;;5038186;28;20067;-72
2022/09/20 09:11:03;;;;;;;7.40;7.00;;;;;;;;;;5032142;28;20424;-72
2022/09/20 09:13:38;;;;;;;6.97;6.68;;;;;;;;;;5029399;28;20041;-72
2022/09/20 09:16:15;;;;;;;6.40;6.10;;;;;;;;;;5010576;28;20033;-72
2022/09/20 09:18:44;;;;;;;6.50;6.20;;;;;;;;;;5018555;28;20090;-72
2022/09/20 09:21:18;;;;;;;6.20;5.90;;;;;;;;;;5028934;28;20049;-72
2022/09/20 09:23:51;;;;;;;6.60;6.30;;;;;;;;;;5034124;28;20064;-72
2022/09/20 09:26:22;;;;;;;6.50;6.20;;;;;;;;;;5028734;28;20056;-72
2022/09/20 09:29:17;;;;;;;6.72;6.43;;;;;;;;;;5031618;28;20029;-72
2022/09/20 09:31:44;;;;;;;6.75;6.45;;;;;;;;;;5037372;28;20377;-71
2022/09/20 09:34:30;;;;;;;6.70;6.40;;;;;;;;;;5031770;28;20037;-71
2022/09/20 09:36:57;;;;;;;7.03;6.72;;;;;;;;;;5034626;28;20036;-71
2022/09/20 09:39:31;;;;;;;7.10;6.80;;;;;;;;;;5027619;28;20112;-71
2022/09/20 09:42:01;;;;;;;7.13;6.82;;;;;;;;;;5028199;28;20029;-71
2022/09/20 09:44:34;;;;;;;7.38;6.97;;;;;;;;;;5028683;28;20033;-71
2022/09/20 09:47:00;;;;;;;6.90;6.60;;;;;;;;;;5029098;28;20041;-71
2022/09/20 09:49:34;;;;;;;6.53;6.22;;;;;;;;;;5013741;28;20444;-71
2022/09/20 09:52:02;;;;;;;6.75;6.45;;;;;;;;;;5029357;28;20152;-71
2022/09/20 09:54:33;;;;;;;6.82;6.53;;;;;;;;;;5028730;28;20029;-71
2022/09/20 09:57:14;;;;;;;7.30;6.90;;;;;;;;;;5026469;28;20124;-71
2022/09/20 10:00:10;;;;;;;6.75;6.45;;;;;;;;;;5033956;28;20047;-71
2022/09/20 10:03:03;;;;;;;7.05;6.75;;;;;;;;;;5030534;28;20037;-71
2022/09/20 10:06:00;;;;;;;6.80;6.50;;;;;;;;;;5026956;28;20029;-70
2022/09/20 10:08:34;;;;;;;7.10;6.80;;;;;;;;;;5030532;28;20040;-71
2022/09/20 10:11:05;;;;;;;6.95;6.65;;;;;;;;;;5029068;28;20546;-71
2022/09/20 10:13:51;;;;;;;7.45;7.05;;;;;;;;;;5024021;28;20037;-71
2022/09/20 10:16:37;;;;;;;5.80;5.50;;;;;;;;;;5029526;28;20038;-71
2022/09/20 10:19:08;;;;;;;6.38;6.07;;;;;;;;;;5029783;28;20474;-71
2022/09/20 10:21:57;;;;;;;6.57;6.28;;;;;;;;;;5019786;28;20041;-71
2022/09/20 10:25:01;;;;;;;6.50;6.20;;;;;;;;;;5028200;28;20041;-71
2022/09/20 10:27:43;;;;;;;6.50;6.20;;;;;;;;;;5032201;28;20041;-71
2022/09/20 10:30:22;;;;;;;6.60;6.30;;;;;;;;;;5034463;28;20787;-71
2022/09/20 10:33:00;;;;;;;6.05;5.75;;;;;;;;;;5026726;28;20048;-71
2022/09/20 10:35:58;;;;;;;6.53;6.22;;;;;;;;;;5024525;28;20400;-70
2022/09/20 10:38:36;;;;;;;6.72;6.43;;;;;;;;;;5033087;28;20156;-71
2022/09/20 10:44:49;;;;;;;7.13;6.82;;;;;;;;;;4986498;28;20075;-70
2022/09/20 10:47:20;;;;;;;6.85;6.55;;;;;;;;;;5038472;28;20040;-71
2022/09/20 10:50:01;;;;;;;7.03;6.72;;;;;;;;;;5032366;28;20029;-71
2022/09/20 10:52:48;;;;;;;6.60;6.30;;;;;;;;;;5022356;28;20037;-71
2022/09/20 10:55:26;;;;;;;6.65;6.35;;;;;;;;;;5035036;28;20049;-70
2022/09/20 10:57:59;;;;;;;6.90;6.60;;;;;;;;;;5036042;28;20037;-71
2022/09/20 11:00:34;;;;;;;6.95;6.65;;;;;;;;;;5028198;28;20056;-71
2022/09/20 11:03:25;;;;;;;6.57;6.28;;;;;;;;;;5036521;28;20118;-71
2022/09/20 11:06:24;;;;;;;7.50;7.10;;;;;;;;;;5041835;28;20026;-71
2022/09/20 11:08:55;;;;;;;7.45;7.05;;;;;;;;;;5040749;28;20032;-70
2022/09/20 11:11:24;;;;;;;7.03;6.72;;;;;;;;;;5031791;28;20120;-71
2022/09/20 11:14:18;;;;;;;7.50;7.10;;;;;;;;;;5044014;28;20108;-70
2022/09/20 11:16:54;;;;;;;8.02;7.63;;;;;;;;;;5044757;28;20037;-71
2022/09/20 11:19:27;;;;;;;7.93;7.53;;;;;;;;;;5036825;28;20071;-72
2022/09/20 11:22:01;;;;;;;7.50;7.10;;;;;;;;;;5042462;28;20035;-71
2022/09/20 11:24:39;;;;;;;7.38;6.97;;;;;;;;;;5040727;28;20049;-73
2022/09/20 11:27:40;;;;;;;7.20;6.82;;;;;;;;;;5040864;28;20593;-72
2022/09/20 11:30:28;;;;;;;7.70;7.30;;;;;;;;;;5019653;28;20041;-72
2022/09/20 11:33:07;;;;;;;7.40;7.00;;;;;;;;;;5038477;28;20056;-72
2022/09/20 11:35:41;;;;;;;7.13;6.82;;;;;;;;;;5037132;28;20084;-71
2022/09/20 11:39:11;;;;;;;6.50;6.20;;;;;;;;;;5032323;28;20572;-71
2022/09/20 11:41:37;;;;;;;6.97;6.68;;;;;;;;;;4858467;29;20106;-72
2022/09/20 11:44:10;;;;;;;6.65;6.35;;;;;;;;;;4854006;29;20045;-71
2022/09/20 11:46:42;;;;;;;6.88;6.57;;;;;;;;;;4860970;29;20750;-71
2022/09/20 11:49:22;;;;;;;7.00;6.70;;;;;;;;;;4865295;29;20045;-71
2022/09/20 11:52:12;;;;;;;7.15;6.82;;;;;;;;;;4861382;29;20076;-70
2022/09/20 11:54:49;;;;;;;7.10;6.80;;;;;;;;;;4859590;29;20634;-71
2022/09/20 11:57:15;;;;;;;7.53;7.13;;;;;;;;;;4861987;29;20056;-71
2022/09/20 11:59:49;;;;;;;7.30;6.90;;;;;;;;;;4855916;29;20044;-71
2022/09/20 12:02:50;;;;;;;7.40;7.00;;;;;;;;;;4861202;29;20135;-71
2022/09/20 12:05:44;;;;;;;7.80;7.40;;;;;;;;;;4858662;29;20045;-71
2022/09/20 12:08:34;;;;;;;7.57;7.18;;;;;;;;;;4786970;29;20078;-72
2022/09/20 12:11:12;;;;;;;7.40;7.00;;;;;;;;;;4782290;29;20043;-71
2022/09/20 12:13:40;;;;;;;6.93;6.63;;;;;;;;;;4782270;29;20046;-72
2022/09/20 12:16:33;;;;;;;7.30;6.90;;;;;;;;;;4817930;29;20458;-71
2022/09/20 12:19:02;;;;;;;7.25;6.85;;;;;;;;;;4934676;29;20267;-71
2022/09/20 12:21:28;;;;;;;7.25;6.90;;;;;;;;;;4934532;29;20036;-71
2022/09/20 12:23:56;;;;;;;6.72;6.43;;;;;;;;;;4941287;29;20046;-70
2022/09/20 12:26:21;;;;;;;6.88;6.57;;;;;;;;;;4942420;29;20190;-70
2022/09/20 12:29:19;;;;;;;7.28;6.88;;;;;;;;;;4937630;29;20126;-70
2022/09/20 12:31:49;;;;;;;7.10;6.80;;;;;;;;;;4940789;29;20579;-72
2022/09/20 12:34:17;;;;;;;7.60;7.20;;;;;;;;;;4940174;29;20043;-72
2022/09/20 12:36:52;;;;;;;6.70;6.40;;;;;;;;;;4935595;29;20042;-71
2022/09/20 12:39:21;;;;;;;6.65;6.35;;;;;;;;;;4937771;29;20134;-72
2022/09/20 12:41:49;;;;;;;;;;;;;;;;;;4933754;29;20039;-72
2022/09/20 12:44:29;;;;;;;7.38;6.97;;;;;;;;;;4975730;28;20170;-72
2022/09/20 12:46:57;;;;;;;7.22;6.82;;;;;;;;;;5027875;28;20048;-72
2022/09/20 12:56:03;;;;;;;;;;;;;;;;;;4966324;28;20070;-73
2022/09/20 12:58:38;;;;;;;7.40;7.00;;;;;;;;;;4968916;28;19918;-73
2022/09/20 13:01:04;;;;;;;7.35;6.95;;;;;;;;;;4972696;28;20038;-73
2022/09/20 13:03:33;;;;;;;6.97;6.68;;;;;;;;;;4968808;28;20061;-72
2022/09/20 13:06:05;;;;;;;7.05;6.75;;;;;;;;;;4968592;28;20548;-73
2022/09/20 13:08:38;;;;;;;6.70;6.40;;;;;;;;;;4972721;28;20054;-73
2022/09/20 13:11:16;;;;;;;6.85;6.55;;;;;;;;;;4967847;28;20043;-72
2022/09/20 13:13:56;;;;;;;6.95;6.65;;;;;;;;;;4966775;28;20038;-72
2022/09/20 13:16:30;;;;;;;6.80;6.50;;;;;;;;;;4964398;28;20058;-72
2022/09/20 13:19:18;;;;;;;6.38;6.07;;;;;;;;;;4965968;28;20553;-72
2022/09/20 13:21:54;;;;;;;6.90;6.60;;;;;;;;;;4962030;28;20544;-72
2022/09/20 13:24:22;;;;;;;6.70;6.40;;;;;;;;;;4970550;28;20042;-72
2022/09/20 13:26:49;;;;;;;6.68;6.38;;;;;;;;;;4967363;28;20038;-71
2022/09/20 13:29:26;;;;;;;6.65;6.35;;;;;;;;;;4985367;28;20140;-71
2022/09/20 13:31:51;;;;;;;6.70;6.40;;;;;;;;;;5037024;28;20024;-71
2022/09/20 13:34:23;;;;;;;6.97;6.68;;;;;;;;;;5040304;28;20751;-71
2022/09/20 13:36:53;;;;;;;7.60;7.20;;;;;;;;;;5036527;28;20029;-71
2022/09/20 13:39:24;;;;;;;6.90;6.60;;;;;;;;;;5031138;28;20041;-72
2022/09/20 13:41:50;;;;;;;7.30;6.90;;;;;;;;;;5033178;28;20127;-72
2022/09/20 13:44:16;;;;;;;7.65;7.25;;;;;;;;;;5036806;28;20039;-72
2022/09/20 13:46:44;;;;;;;7.35;6.95;;;;;;;;;;5035180;28;20033;-73
2022/09/20 13:49:22;;;;;;;7.30;6.90;;;;;;;;;;5032317;28;20030;-72
2022/09/20 13:51:48;;;;;;;7.63;7.22;;;;;;;;;;5038582;28;20041;-73
2022/09/20 13:54:20;;;;;;;7.43;7.03;;;;;;;;;;5029143;28;20042;-73
2022/09/20 13:56:47;;;;;;;7.70;7.30;;;;;;;;;;5032327;28;20028;-73
2022/09/20 13:59:16;;;;;;;7.05;6.75;;;;;;;;;;5037660;28;20064;-72
2022/09/20 14:01:48;;;;;;;7.40;7.00;;;;;;;;;;5027273;28;20030;-72
2022/09/20 14:04:17;;;;;;;7.03;6.72;;;;;;;;;;5013966;28;20025;-72
2022/09/20 14:06:44;;;;;;;7.35;6.95;;;;;;;;;;5019780;28;20071;-71
2022/09/20 14:09:20;;;;;;;6.65;6.35;;;;;;;;;;5022561;28;20079;-71
2022/09/20 14:11:46;;;;;;;7.03;6.72;;;;;;;;;;5037948;28;20039;-71
2022/09/20 14:14:13;;;;;;;6.63;6.32;;;;;;;;;;5031832;28;20124;-72
2022/09/20 14:16:43;;;;;;;6.65;6.35;;;;;;;;;;5038469;28;20040;-71
2022/09/20 14:19:16;;;;;;;6.72;6.43;;;;;;;;;;5038626;28;20471;-71
2022/09/20 14:21:42;;;;;;;6.60;6.30;;;;;;;;;;5014454;28;20033;-71
2022/09/20 14:24:13;;;;;;;6.72;6.43;;;;;;;;;;5030548;28;20500;-71
2022/09/20 14:26:59;;;;;;;6.72;6.43;;;;;;;;;;5038388;28;20037;-71
2022/09/20 14:29:39;;;;;;;6.65;6.35;;;;;;;;;;5039868;28;20064;-70
2022/09/20 14:32:16;;;;;;;6.40;6.10;;;;;;;;;;5031612;28;20037;-70
2022/09/20 14:34:54;;;;;;;6.53;6.22;;;;;;;;;;5022275;28;20507;-70
2022/09/20 14:37:48;;;;;;;6.72;6.43;;;;;;;;;;5034668;28;21796;-70
2022/09/20 14:40:23;;;;;;;6.10;5.80;;;;;;;;;;5034153;28;20593;-70
2022/09/20 14:42:59;;;;;;;6.07;5.78;;;;;;;;;;5037615;28;20387;-70
2022/09/20 14:45:31;;;;;;;6.47;6.18;;;;;;;;;;5026446;28;20452;-70
2022/09/20 14:48:07;;;;;;;6.53;6.22;;;;;;;;;;5039773;28;20029;-70
2022/09/20 14:50:34;;;;;;;6.80;6.50;;;;;;;;;;5035443;28;20045;-70
2022/09/20 14:53:04;;;;;;;6.30;6.00;;;;;;;;;;5028651;28;20037;-70
2022/09/20 14:55:31;;;;;;;6.55;6.25;;;;;;;;;;5031496;28;20091;-72
2022/09/20 14:58:07;;;;;;;7.03;6.72;;;;;;;;;;5037515;28;20041;-70
2022/09/20 15:00:49;;;;;;;6.65;6.35;;;;;;;;;;5040025;28;20036;-70
2022/09/20 15:03:18;;;;;;;6.60;6.30;;;;;;;;;;5041872;28;20029;-70
2022/09/20 15:05:48;;;;;;;6.70;6.40;;;;;;;;;;5034219;28;20480;-70
2022/09/20 15:08:14;;;;;;;6.18;5.88;;;;;;;;;;5038750;28;20033;-70
2022/09/20 15:10:40;;;;;;;6.53;6.22;;;;;;;;;;5036381;28;20041;-70
2022/09/20 15:13:09;;;;;;;6.60;6.30;;;;;;;;;;5016084;28;20040;-70
2022/09/20 15:15:35;;;;;;;6.30;6.00;;;;;;;;;;5041763;28;20045;-70
2022/09/20 15:18:01;;;;;;;6.55;6.25;;;;;;;;;;5044824;28;20040;-70
2022/09/20 15:20:28;;;;;;;6.22;5.93;;;;;;;;;;5034220;28;20115;-70
2022/09/20 15:22:55;;;;;;;6.60;6.30;;;;;;;;;;5043961;28;20116;-70
2022/09/20 15:25:21;;;;;;;6.40;6.10;;;;;;;;;;5009973;28;20512;-70
2022/09/20 15:27:49;;;;;;;6.70;6.40;;;;;;;;;;5023131;28;20048;-70
2022/09/20 15:30:18;;;;;;;6.40;6.10;;;;;;;;;;5027362;28;20171;-70
2022/09/20 15:32:45;;;;;;;7.05;6.75;;;;;;;;;;5033283;28;20033;-70
2022/09/20 15:35:12;;;;;;;6.18;5.88;;;;;;;;;;5037560;28;20503;-70
2022/09/20 15:37:38;;;;;;;6.35;6.05;;;;;;;;;;5039246;28;20058;-70
2022/09/20 15:40:06;;;;;;;6.13;5.82;;;;;;;;;;5027750;28;20048;-70
2022/09/20 15:42:36;;;;;;;6.35;6.05;;;;;;;;;;5039202;28;20401;-70
2022/09/20 15:45:07;;;;;;;6.35;6.05;;;;;;;;;;5036892;28;20080;-70
2022/09/20 15:47:35;;;;;;;6.03;5.72;;;;;;;;;;5039035;28;20033;-70
2022/09/20 15:50:02;;;;;;;6.40;6.10;;;;;;;;;;5040388;28;20037;-70
2022/09/20 15:52:33;;;;;;;6.50;6.20;;;;;;;;;;5038839;28;20036;-70